Time;durP1;ratioP1;P1;durP2;ratioP2;P2;SDS_P1;SDS_P2;PMS_P1;PMS_P2;Temp;Humidity;BMP_temperature;BMP_pressure;BME280_temperature;BME280_humidity;BME280_pressure;Samples;Min_cycle;Max_cycle;Signal;HPM_P1;HPM_P2
2023/05/11 00:02:21;;;;;;;;;;;;;;;;;;4990172;28;20340;-78
2023/05/11 00:04:49;;;;;;;;;;;;;;;;;;4973743;28;19926;-78
2023/05/11 00:07:16;;;;;;;;;;;;;;;;;;4971888;28;20385;-78
2023/05/11 00:09:43;;;;;;;;;;;;;;;;;;4989098;28;19944;-78
2023/05/11 00:12:10;;;;;;;;;;;;;;;;;;4990299;28;19926;-78
2023/05/11 00:14:37;;;;;;;;;;;;;;;;;;4974530;28;19933;-78
2023/05/11 00:17:05;;;;;;;;;;;;;;;;;;4973565;28;20397;-78
2023/05/11 00:19:32;;;;;;;;;;;;;;;;;;4988377;28;19930;-78
2023/05/11 00:22:00;;;;;;;;;;;;;;;;;;4989514;28;19942;-78
2023/05/11 00:24:27;;;;;;;;;;;;;;;;;;4958332;28;20424;-78
2023/05/11 00:26:54;;;;;;;;;;;;;;;;;;4989302;28;19925;-78
2023/05/11 00:29:25;;;;;;;;;;;;;;;;;;4989938;28;19930;-78
2023/05/11 00:31:55;;;;;;;;;;;;;;;;;;4974523;28;19948;-78
2023/05/11 00:34:23;;;;;;;;;;;;;;;;;;4989545;28;19926;-78
2023/05/11 00:36:50;;;;;;;;;;;;;;;;;;4972645;28;20385;-78
2023/05/11 00:39:19;;;;;;;;;;;;;;;;;;4973563;28;20397;-78
2023/05/11 00:41:46;;;;;;;;;;;;;;;;;;4974820;28;19941;-78
2023/05/11 00:44:15;;;;;;;;;;;;;;;;;;4973559;28;20400;-78
2023/05/11 00:46:45;;;;;;;;;;;;;;;;;;4973713;28;19933;-78
2023/05/11 00:49:16;;;;;;;;;;;;;;;;;;4992338;28;19944;-78
2023/05/11 00:51:44;;;;;;;;;;;;;;;;;;4978305;28;19925;-78
2023/05/11 00:54:14;;;;;;;;;;;;;;;;;;4993932;28;19926;-78
2023/05/11 00:56:43;;;;;;;;;;;;;;;;;;4993834;28;19932;-78
2023/05/11 00:59:10;;;;;;;;;;;;;;;;;;4994320;28;19926;-78
2023/05/11 01:01:38;;;;;;;;;;;;;;;;;;4992834;28;20381;-78
2023/05/11 01:04:08;;;;;;;;;;;;;;;;;;4977642;28;20302;-78
2023/05/11 01:06:43;;;;;;;;;;;;;;;;;;4976713;28;20655;-78
2023/05/11 01:09:14;;;;;;;;;;;;;;;;;;4992564;28;20328;-78
2023/05/11 01:11:42;;;;;;;;;;;;;;;;;;4985323;28;20313;-78
2023/05/11 01:14:14;;;;;;;;;;;;;;;;;;4978794;28;19926;-78
2023/05/11 01:16:42;;;;;;;;;;;;;;;;;;4968631;28;19926;-78
2023/05/11 01:19:11;;;;;;;;;;;;;;;;;;4971724;28;19926;-78
2023/05/11 01:21:38;;;;;;;;;;;;;;;;;;4978138;28;20364;-78
2023/05/11 01:24:28;;;;;;;;;;;;;;;;;;4977893;28;19933;-78
2023/05/11 01:27:07;;;;;;;;;;;;;;;;;;4976832;28;19925;-78
2023/05/11 01:29:50;;;;;;;;;;;;;;;;;;4976203;28;20393;-78
2023/05/11 01:32:19;;;;;;;;;;;;;;;;;;4978010;28;19926;-78
2023/05/11 01:34:49;;;;;;;;;;;;;;;;;;4977061;28;20321;-78
2023/05/11 01:37:16;;;;;;;;;;;;;;;;;;4992314;28;19926;-78
2023/05/11 01:39:46;;;;;;;;;;;;;;;;;;4975978;28;19926;-78
2023/05/11 01:42:12;;;;;;;;;;;;;;;;;;4977290;28;20296;-78
2023/05/11 01:44:42;;;;;;;;;;;;;;;;;;4993711;28;19926;-78
2023/05/11 01:47:11;;;;;;;;;;;;;;;;;;4977079;28;19949;-78
2023/05/11 01:49:40;;;;;;;;;;;;;;;;;;4975955;28;19940;-78
2023/05/11 01:52:12;;;;;;;;;;;;;;;;;;4977484;28;19932;-78
2023/05/11 01:54:42;;;;;;;;;;;;;;;;;;4969618;28;19948;-78
2023/05/11 01:57:10;;;;;;;;;;;;;;;;;;4991899;28;19933;-78
2023/05/11 01:59:40;;;;;;;;;;;;;;;;;;4991640;28;20404;-78
2023/05/11 02:02:07;;;;;;;;;;;;;;;;;;4976868;28;20397;-78
2023/05/11 02:04:34;;;;;;;;;;;;;;;;;;4975537;28;19941;-78
2023/05/11 02:07:02;;;;;;;;;;;;;;;;;;4975886;28;19944;-78
2023/05/11 02:09:30;;;;;;;;;;;;;;;;;;4992848;28;19945;-78
2023/05/11 02:11:57;;;;;;;;;;;;;;;;;;4970054;28;19933;-78
2023/05/11 02:14:24;;;;;;;;;;;;;;;;;;4976389;28;19925;-78
2023/05/11 02:16:53;;;;;;;;;;;;;;;;;;4993165;28;19926;-78
2023/05/11 02:19:20;;;;;;;;;;;;;;;;;;4993142;28;19933;-78
2023/05/11 02:21:50;;;;;;;;;;;;;;;;;;4993539;28;19925;-78
2023/05/11 02:24:18;;;;;;;;;;;;;;;;;;4975937;28;19926;-78
2023/05/11 02:26:45;;;;;;;;;;;;;;;;;;4974542;28;19933;-78
2023/05/11 02:29:14;;;;;;;;;;;;;;;;;;4975709;28;19925;-78
2023/05/11 02:31:42;;;;;;;;;;;;;;;;;;4971454;28;19926;-78
2023/05/11 02:34:19;;;;;;;;;;;;;;;;;;4991393;28;19936;-78
2023/05/11 02:36:48;;;;;;;;;;;;;;;;;;4975930;28;19945;-78
2023/05/11 02:39:21;;;;;;;;;;;;;;;;;;4975324;28;19929;-78
2023/05/11 02:41:49;;;;;;;;;;;;;;;;;;4975424;28;20005;-78
2023/05/11 02:44:16;;;;;;;;;;;;;;;;;;4975536;28;19926;-78
2023/05/11 02:46:47;;;;;;;;;;;;;;;;;;4976558;28;19926;-78
2023/05/11 02:49:14;;;;;;;;;;;;;;;;;;4991710;28;19993;-78
2023/05/11 02:51:43;;;;;;;;;;;;;;;;;;4975847;28;19926;-78
2023/05/11 02:54:12;;;;;;;;;;;;;;;;;;4991905;28;20297;-78
2023/05/11 02:56:47;;;;;;;;;;;;;;;;;;4990963;28;20302;-78
2023/05/11 02:59:14;;;;;;;;;;;;;;;;;;4991873;28;19926;-78
2023/05/11 03:01:41;;;;;;;;;;;;;;;;;;4975230;28;19933;-78
2023/05/11 03:04:14;;;;;;;;;;;;;;;;;;4992297;28;19948;-78
2023/05/11 03:06:41;;;;;;;;;;;;;;;;;;4974080;28;19937;-78
2023/05/11 03:09:09;;;;;;;;;;;;;;;;;;4992784;28;19930;-78
2023/05/11 03:11:41;;;;;;;;;;;;;;;;;;4974664;28;20297;-78
2023/05/11 03:14:12;;;;;;;;;;;;;;;;;;4990930;28;19932;-78
2023/05/11 03:16:40;;;;;;;;;;;;;;;;;;4975006;28;19941;-78
2023/05/11 03:19:09;;;;;;;;;;;;;;;;;;4975358;28;19929;-78
2023/05/11 03:21:37;;;;;;;;;;;;;;;;;;4975227;28;19934;-78
2023/05/11 03:24:04;;;;;;;;;;;;;;;;;;4974574;28;19926;-78
2023/05/11 03:26:32;;;;;;;;;;;;;;;;;;4966585;28;19926;-78
2023/05/11 03:29:00;;;;;;;;;;;;;;;;;;4974510;28;19930;-78
2023/05/11 03:31:30;;;;;;;;;;;;;;;;;;4990645;28;19926;-78
2023/05/11 03:34:00;;;;;;;;;;;;;;;;;;4989724;28;19926;-78
2023/05/11 03:36:31;;;;;;;;;;;;;;;;;;4973432;28;20278;-78
2023/05/11 03:38:58;;;;;;;;;;;;;;;;;;4975115;28;19932;-78
2023/05/11 03:41:33;;;;;;;;;;;;;;;;;;4974039;28;20404;-78
2023/05/11 03:44:00;;;;;;;;;;;;;;;;;;4974434;28;19930;-78
2023/05/11 03:46:29;;;;;;;;;;;;;;;;;;4972348;28;20148;-78
2023/05/11 03:48:56;;;;;;;;;;;;;;;;;;4972170;28;19937;-78
2023/05/11 03:51:30;;;;;;;;;;;;;;;;;;4996178;28;19934;-78
2023/05/11 03:54:02;;;;;;;;;;;;;;;;;;4998364;28;19933;-78
2023/05/11 03:56:32;;;;;;;;;;;;;;;;;;4996742;28;19926;-79
2023/05/11 03:58:59;;;;;;;;;;;;;;;;;;4975176;28;19937;-79
2023/05/11 04:01:31;;;;;;;;;;;;;;;;;;4996158;28;19930;-79
2023/05/11 04:03:58;;;;;;;;;;;;;;;;;;4974109;28;19927;-80
2023/05/11 04:06:25;;;;;;;;;;;;;;;;;;4981416;28;20328;-80
2023/05/11 04:09:03;;;;;;;;;;;;;;;;;;4975630;28;19933;-79
2023/05/11 04:11:30;;;;;;;;;;;;;;;;;;4991095;28;19932;-79
2023/05/11 04:14:00;;;;;;;;;;;;;;;;;;4991946;28;19957;-79
2023/05/11 04:16:30;;;;;;;;;;;;;;;;;;4975433;28;19925;-79
2023/05/11 04:18:57;;;;;;;;;;;;;;;;;;4991868;28;19933;-79
2023/05/11 04:21:24;;;;;;;;;;;;;;;;;;4975621;28;20342;-79
2023/05/11 04:23:51;;;;;;;;;;;;;;;;;;4975579;28;19949;-79
2023/05/11 04:26:18;;;;;;;;;;;;;;;;;;4975447;28;19933;-79
2023/05/11 04:28:45;;;;;;;;;;;;;;;;;;4992594;28;19926;-79
2023/05/11 04:31:12;;;;;;;;;;;;;;;;;;4991834;28;19926;-79
2023/05/11 04:33:41;;;;;;;;;;;;;;;;;;4975602;28;19933;-79
2023/05/11 04:36:08;;;;;;;;;;;;;;;;;;4975236;28;19933;-79
2023/05/11 04:38:38;;;;;;;;;;;;;;;;;;4991388;28;19932;-79
2023/05/11 04:41:06;;;;;;;;;;;;;;;;;;4975707;28;19949;-79
2023/05/11 04:43:36;;;;;;;;;;;;;;;;;;4991878;28;20397;-79
2023/05/11 04:46:05;;;;;;;;;;;;;;;;;;4992377;28;19933;-79
2023/05/11 04:48:32;;;;;;;;;;;;;;;;;;4991246;28;19926;-79
2023/05/11 04:51:03;;;;;;;;;;;;;;;;;;4991911;28;19926;-79
2023/05/11 04:53:32;;;;;;;;;;;;;;;;;;4975527;28;19933;-79
2023/05/11 04:56:01;;;;;;;;;;;;;;;;;;4975756;28;19949;-79
2023/05/11 04:58:28;;;;;;;;;;;;;;;;;;4983480;28;19930;-78
2023/05/11 05:00:55;;;;;;;;;;;;;;;;;;4975808;28;19926;-78
2023/05/11 05:03:22;;;;;;;;;;;;;;;;;;4991728;28;19937;-78
2023/05/11 05:05:52;;;;;;;;;;;;;;;;;;4975674;28;20317;-78
2023/05/11 05:08:20;;;;;;;;;;;;;;;;;;4975249;28;19926;-78
2023/05/11 05:10:48;;;;;;;;;;;;;;;;;;4975837;28;19926;-78
2023/05/11 05:13:18;;;;;;;;;;;;;;;;;;4975928;28;19932;-78
2023/05/11 05:15:45;;;;;;;;;;;;;;;;;;4976370;28;19926;-78
2023/05/11 05:18:12;;;;;;;;;;;;;;;;;;4975825;28;19925;-79
2023/05/11 05:20:39;;;;;;;;;;;;;;;;;;4976170;28;19932;-79
2023/05/11 05:23:06;;;;;;;;;;;;;;;;;;4977065;28;19926;-79
2023/05/11 05:25:36;;;;;;;;;;;;;;;;;;4975938;28;19926;-79
2023/05/11 05:28:03;;;;;;;;;;;;;;;;;;4976603;28;20301;-79
2023/05/11 05:30:31;;;;;;;;;;;;;;;;;;4977086;28;19933;-79
2023/05/11 05:33:01;;;;;;;;;;;;;;;;;;4969638;28;19949;-79
2023/05/11 05:35:33;;;;;;;;;;;;;;;;;;4972783;28;19925;-79
2023/05/11 05:38:03;;;;;;;;;;;;;;;;;;4980964;28;19926;-79
2023/05/11 05:40:31;;;;;;;;;;;;;;;;;;4980706;28;19929;-79
2023/05/11 05:42:59;;;;;;;;;;;;;;;;;;4996985;28;19925;-79
2023/05/11 05:45:32;;;;;;;;;;;;;;;;;;4980815;28;19926;-79
2023/05/11 07:58:24;;;;;;;;;;;;;;;;;;1477570;26;19931;-78
2023/05/11 08:00:51;;;;;;;;;;;;;;;;;;5024273;28;19924;-78
2023/05/11 08:03:20;;;;;;;;;;;;;;;;;;5051746;28;19924;-78
2023/05/11 08:05:47;;;;;;;;;;;;;;;;;;5018807;28;19936;-78
2023/05/11 08:08:14;;;;;;;;;;;;;;;;;;5001626;28;19925;-78
2023/05/11 08:10:43;;;;;;;;;;;;;;;;;;5043787;28;19932;-78
2023/05/11 08:13:12;;;;;;;;;;;;;;;;;;5034421;28;19924;-78
2023/05/11 08:15:40;;;;;;;;;;;;;;;;;;5006731;28;19933;-78
2023/05/11 08:40:55;;;;;;;;;;;;;;;;;;4262757;22;19948;-78
2023/05/11 09:45:16;;;;;;;;;;;;;;;;;;543791;26;20199;-79
2023/05/11 09:47:45;;;;;;;;;;;;;;;;;;5026146;28;19925;-79
2023/05/11 09:50:18;;;;;;;;;;;;;;;;;;5027243;28;19929;-79
2023/05/11 09:52:50;;;;;;;;;;;;;;;;;;5026467;28;19932;-79
2023/05/11 09:55:19;;;;;;;;;;;;;;;;;;5021847;28;19933;-79
2023/05/11 09:57:48;;;;;;;;;;;;;;;;;;5019293;28;19939;-80
2023/05/11 10:00:17;;;;;;;;;;;;;;;;;;5023425;28;19932;-80
2023/05/11 10:02:44;;;;;;;;;;;;;;;;;;5028709;28;19926;-80
2023/05/11 10:05:12;;;;;;;;;;;;;;;;;;5043706;28;19929;-80
2023/05/11 11:19:47;;;;;;;;;;;;;;;;;;6174268;22;1957371;-79
2023/05/11 11:22:37;;;;;;;;;;;;;;;;;;6197449;23;20343;-79
2023/05/11 11:25:04;;;;;;;;;;;;;;;;;;6196287;23;20352;-79
2023/05/11 11:27:51;;;;;;;;;;;;;;;;;;6213628;23;19920;-79
2023/05/11 11:30:19;;;;;;;;;;;;;;;;;;6192854;23;20280;-79
2023/05/11 11:32:48;;;;;;;;;;;;;;;;;;6190965;23;19920;-79
2023/05/11 11:35:34;;;;;;;;;;;;;;;;;;6191469;23;19927;-79
2023/05/11 12:00:38;;;;;;;;;;;;;;;;;;6232270;22;19920;-80
2023/05/11 12:03:05;;;;;;;;;;;;;;;;;;6183530;23;19920;-80
2023/05/11 12:05:33;;;;;;;;;;;;;;;;;;6202639;23;19919;-80
2023/05/11 12:08:01;;;;;;;;;;;;;;;;;;6201886;23;19920;-80
2023/05/11 12:10:28;;;;;;;;;;;;;;;;;;6178940;23;19924;-80
2023/05/11 12:12:56;;;;;;;;;;;;;;;;;;6178148;23;19926;-80
2023/05/11 12:15:28;;;;;;;;;;;;;;;;;;6177923;23;19919;-80
2023/05/11 12:18:01;;;;;;;;;;;;;;;;;;6203057;23;19920;-80
2023/05/11 12:20:28;;;;;;;;;;;;;;;;;;6179023;23;19971;-80
2023/05/11 12:22:59;;;;;;;;;;;;;;;;;;6203603;23;20006;-80
2023/05/11 12:25:28;;;;;;;;;;;;;;;;;;6203594;23;20276;-80
2023/05/11 12:28:01;;;;;;;;;;;;;;;;;;6177800;23;19927;-80
2023/05/11 12:30:29;;;;;;;;;;;;;;;;;;6178050;23;19923;-80
2023/05/11 12:32:58;;;;;;;;;;;;;;;;;;6239702;23;19930;-80
2023/05/11 12:35:26;;;;;;;;;;;;;;;;;;6178087;23;19920;-80
2023/05/11 12:37:56;;;;;;;;;;;;;;;;;;6202243;23;19920;-80
2023/05/11 12:40:26;;;;;;;;;;;;;;;;;;6239888;23;19927;-80
2023/05/11 12:42:55;;;;;;;;;;;;;;;;;;6214080;23;19926;-80
2023/05/11 12:45:23;;;;;;;;;;;;;;;;;;6203430;23;19923;-80
2023/05/11 12:47:51;;;;;;;;;;;;;;;;;;6202006;23;20072;-80
2023/05/11 12:50:20;;;;;;;;;;;;;;;;;;6177691;23;19920;-80
2023/05/11 12:52:49;;;;;;;;;;;;;;;;;;6178057;23;19919;-80
2023/05/11 12:55:26;;;;;;;;;;;;;;;;;;6229186;23;19920;-80
2023/05/11 12:57:55;;;;;;;;;;;;;;;;;;6177494;23;19924;-80
2023/05/11 13:00:22;;;;;;;;;;;;;;;;;;6178367;23;19926;-80
2023/05/11 13:02:52;;;;;;;;;;;;;;;;;;6178091;23;19926;-80
2023/05/11 13:05:23;;;;;;;;;;;;;;;;;;6178757;23;19920;-80
2023/05/11 13:07:59;;;;;;;;;;;;;;;;;;6201960;23;19920;-80
2023/05/11 13:10:29;;;;;;;;;;;;;;;;;;6177197;23;19927;-80
2023/05/11 13:12:58;;;;;;;;;;;;;;;;;;6202904;23;19920;-80
2023/05/11 13:15:29;;;;;;;;;;;;;;;;;;6177813;23;19927;-80
2023/05/11 13:18:01;;;;;;;;;;;;;;;;;;6177980;23;19942;-80
2023/05/11 13:20:30;;;;;;;;;;;;;;;;;;6203156;23;19924;-80
2023/05/11 13:23:06;;;;;;;;;;;;;;;;;;6203541;23;19919;-80
2023/05/11 13:25:33;;;;;;;;;;;;;;;;;;6239555;23;19919;-80
2023/05/11 13:28:01;;;;;;;;;;;;;;;;;;6202893;23;19926;-80
2023/05/11 13:30:28;;;;;;;;;;;;;;;;;;6202963;23;20340;-80
2023/05/11 13:32:59;;;;;;;;;;;;;;;;;;6203192;23;19926;-80
2023/05/11 13:35:26;;;;;;;;;;;;;;;;;;6177905;23;19926;-80
2023/05/11 13:37:55;;;;;;;;;;;;;;;;;;6228929;23;19935;-80
2023/05/11 13:40:22;;;;;;;;;;;;;;;;;;6177970;23;19924;-80
2023/05/11 13:43:03;;;;;;;;;;;;;;;;;;6202985;23;19926;-80
2023/05/11 13:45:30;;;;;;;;;;;;;;;;;;6213514;23;20340;-80
2023/05/11 13:47:57;;;;;;;;;;;;;;;;;;6228748;23;19920;-80
2023/05/11 13:50:24;;;;;;;;;;;;;;;;;;6203244;23;19920;-80
2023/05/11 13:52:55;;;;;;;;;;;;;;;;;;6177197;23;19919;-80
2023/05/11 13:55:24;;;;;;;;;;;;;;;;;;6178187;23;19920;-80
2023/05/11 13:57:51;;;;;;;;;;;;;;;;;;6177630;23;19942;-80
2023/05/11 14:00:18;;;;;;;;;;;;;;;;;;6178073;23;19926;-80
2023/05/11 14:02:46;;;;;;;;;;;;;;;;;;6202078;23;19935;-80
2023/05/11 14:05:14;;;;;;;;;;;;;;;;;;6178045;23;20211;-80
2023/05/11 14:07:41;;;;;;;;;;;;;;;;;;6177230;23;19926;-80
2023/05/11 14:10:12;;;;;;;;;;;;;;;;;;6202552;23;19920;-80
2023/05/11 14:12:42;;;;;;;;;;;;;;;;;;6178875;23;19930;-80
2023/05/11 14:15:10;;;;;;;;;;;;;;;;;;6177579;23;19919;-80
2023/05/11 14:17:37;;;;;;;;;;;;;;;;;;6177100;23;19919;-80
2023/05/11 14:20:05;;;;;;;;;;;;;;;;;;6178288;23;20255;-79
2023/05/11 14:22:32;;;;;;;;;;;;;;;;;;6202582;23;19924;-79
2023/05/11 14:25:01;;;;;;;;;;;;;;;;;;6239553;23;20203;-80
2023/05/11 14:27:29;;;;;;;;;;;;;;;;;;6201223;23;19924;-80
2023/05/11 14:29:58;;;;;;;;;;;;;;;;;;6203259;23;19919;-80
2023/05/11 14:56:26;;;;;;;;;;;;;;;;;;6245492;22;20237;-79
2023/05/11 14:58:55;;;;;;;;;;;;;;;;;;6231853;23;19920;-79
2023/05/11 15:01:24;;;;;;;;;;;;;;;;;;6208225;23;19919;-79
2023/05/11 15:03:58;;;;;;;;;;;;;;;;;;6209273;23;19920;-79
2023/05/11 15:06:25;;;;;;;;;;;;;;;;;;6208627;23;20065;-79
2023/05/11 15:08:52;;;;;;;;;;;;;;;;;;6233412;23;19929;-79
2023/05/11 15:11:24;;;;;;;;;;;;;;;;;;6233491;23;19920;-79
2023/05/11 15:13:53;;;;;;;;;;;;;;;;;;6232891;23;19923;-79
2023/05/11 15:16:21;;;;;;;;;;;;;;;;;;6233635;23;19926;-79
2023/05/11 15:18:48;;;;;;;;;;;;;;;;;;6207864;23;19963;-79
2023/05/11 15:21:20;;;;;;;;;;;;;;;;;;6208480;23;19919;-79
2023/05/11 15:23:52;;;;;;;;;;;;;;;;;;6207627;23;19926;-79
2023/05/11 15:26:36;;;;;;;;;;;;;;;;;;6207702;23;19935;-79
2023/05/11 15:29:05;;;;;;;;;;;;;;;;;;6269573;23;19919;-79
2023/05/11 15:31:34;;;;;;;;;;;;;;;;;;6207517;23;19919;-79
2023/05/11 15:34:02;;;;;;;;;;;;;;;;;;6206063;23;19930;-79
2023/05/11 15:36:30;;;;;;;;;;;;;;;;;;6206351;23;19926;-79
2023/05/11 15:39:01;;;;;;;;;;;;;;;;;;6259520;23;19919;-79
2023/05/11 15:41:30;;;;;;;;;;;;;;;;;;6210156;23;19919;-79
2023/05/11 15:43:59;;;;;;;;;;;;;;;;;;6209460;23;19926;-79
2023/05/11 16:08:27;;;;;;;;;;;;;;;;;;6220516;22;19918;-79
2023/05/11 16:10:54;;;;;;;;;;;;;;;;;;6198890;23;19927;-79
2023/05/11 16:13:48;;;;;;;;;;;;;;;;;;6188770;23;20283;-79
2023/05/11 16:17:29;;;;;;;;;;;;;;;;;;6178104;23;19927;-79
2023/05/11 16:23:24;;;;;;;;;;;;;;;;;;6151221;23;19903;-95
2023/05/11 16:25:56;;;;;;;;;;;;;;;;;;6217985;23;19951;-95
2023/05/11 16:28:25;;;;;;;;;;;;;;;;;;6165274;23;19944;-95
2023/05/11 16:30:56;;;;;;;;;;;;;;;;;;6190469;23;19944;-96
2023/05/11 16:33:29;;;;;;;;;;;;;;;;;;6165513;23;19948;-95
2023/05/11 16:36:02;;;;;;;;;;;;;;;;;;6164864;23;19953;-96
2023/05/11 16:38:40;;;;;;;;;;;;;;;;;;6164802;23;19944;-96
2023/05/11 16:41:15;;;;;;;;;;;;;;;;;;6165512;23;19948;-95
2023/05/11 16:43:46;;;;;;;;;;;;;;;;;;6164531;23;19944;-96
2023/05/11 16:46:14;;;;;;;;;;;;;;;;;;6165375;23;19957;-95
2023/05/11 16:48:41;;;;;;;;;;;;;;;;;;6164964;23;19944;-95
2023/05/11 16:51:09;;;;;;;;;;;;;;;;;;6164903;23;19940;-96
2023/05/11 16:53:43;;;;;;;;;;;;;;;;;;6165789;23;19944;-95
2023/05/11 16:56:12;;;;;;;;;;;;;;;;;;6165269;23;19944;-96
2023/05/11 16:58:43;;;;;;;;;;;;;;;;;;6165478;23;19940;-96
2023/05/11 17:01:14;;;;;;;;;;;;;;;;;;6165252;23;19944;-96
2023/05/11 17:03:42;;;;;;;;;;;;;;;;;;6164993;23;19948;-96
2023/05/11 17:06:13;;;;;;;;;;;;;;;;;;6165142;23;19944;-96
2023/05/11 17:08:41;;;;;;;;;;;;;;;;;;6199642;23;19936;-96
2023/05/11 17:11:16;;;;;;;;;;;;;;;;;;6190041;23;19940;-96
2023/05/11 17:13:48;;;;;;;;;;;;;;;;;;6163526;23;19948;-96
2023/05/11 17:16:22;;;;;;;;;;;;;;;;;;6165212;23;19940;-96
2023/05/11 17:18:53;;;;;;;;;;;;;;;;;;6164913;23;19944;-96
2023/05/11 17:21:22;;;;;;;;;;;;;;;;;;6164176;23;19944;-96
2023/05/11 17:23:53;;;;;;;;;;;;;;;;;;6166286;23;19940;-95
2023/05/11 17:26:22;;;;;;;;;;;;;;;;;;6189482;23;19940;-96
2023/05/11 17:28:56;;;;;;;;;;;;;;;;;;6189502;23;19943;-96
2023/05/11 17:31:25;;;;;;;;;;;;;;;;;;6189665;23;19945;-96
2023/05/11 17:33:57;;;;;;;;;;;;;;;;;;6188830;23;19948;-96
2023/05/11 17:36:28;;;;;;;;;;;;;;;;;;6189635;23;19952;-96
2023/05/11 17:38:58;;;;;;;;;;;;;;;;;;6189674;23;19940;-96
2023/05/11 17:41:30;;;;;;;;;;;;;;;;;;6189542;23;19944;-96
2023/05/11 17:44:05;;;;;;;;;;;;;;;;;;6190302;23;19997;-96
2023/05/11 17:46:35;;;;;;;;;;;;;;;;;;6214380;23;19940;-96
2023/05/11 17:49:08;;;;;;;;;;;;;;;;;;6190176;23;19952;-96
2023/05/11 17:51:36;;;;;;;;;;;;;;;;;;6187886;23;19948;-95
2023/05/11 17:54:14;;;;;;;;;;;;;;;;;;6190109;23;19948;-96
2023/05/11 17:56:47;;;;;;;;;;;;;;;;;;6188285;23;19948;-96
2023/05/11 17:59:22;;;;;;;;;;;;;;;;;;6213893;23;19944;-96
2023/05/11 18:01:52;;;;;;;;;;;;;;;;;;6187025;23;19952;-96
2023/05/11 18:04:22;;;;;;;;;;;;;;;;;;6187381;23;19944;-96
2023/05/11 18:06:53;;;;;;;;;;;;;;;;;;6188787;23;19949;-96
2023/05/11 18:09:21;;;;;;;;;;;;;;;;;;6189393;23;20116;-95
2023/05/11 18:11:51;;;;;;;;;;;;;;;;;;6189306;23;19944;-95
2023/05/11 18:14:21;;;;;;;;;;;;;;;;;;6188952;23;19952;-95
2023/05/11 18:16:52;;;;;;;;;;;;;;;;;;6188029;23;19944;-95
2023/05/11 18:19:20;;;;;;;;;;;;;;;;;;6188246;23;19944;-96
2023/05/11 18:21:48;;;;;;;;;;;;;;;;;;6188545;23;19956;-96
2023/05/11 18:24:17;;;;;;;;;;;;;;;;;;6188771;23;19944;-96
2023/05/11 18:26:50;;;;;;;;;;;;;;;;;;6188966;23;19979;-96
2023/05/11 18:29:20;;;;;;;;;;;;;;;;;;6188641;23;19956;-96
2023/05/11 18:31:57;;;;;;;;;;;;;;;;;;6187025;23;19952;-95
2023/05/11 18:34:45;;;;;;;;;;;;;;;;;;6191982;23;19950;-95
2023/05/11 18:37:18;;;;;;;;;;;;;;;;;;6188254;23;19948;-95
2023/05/11 18:39:49;;;;;;;;;;;;;;;;;;6188659;23;19944;-96
2023/05/11 18:42:24;;;;;;;;;;;;;;;;;;6213817;23;19960;-95
2023/05/11 18:44:53;;;;;;;;;;;;;;;;;;6213651;23;19948;-95
2023/05/11 18:47:23;;;;;;;;;;;;;;;;;;6188581;23;19944;-96
2023/05/11 18:49:53;;;;;;;;;;;;;;;;;;6213632;23;19953;-95
2023/05/11 18:52:26;;;;;;;;;;;;;;;;;;6188940;23;19944;-95
2023/05/11 18:54:57;;;;;;;;;;;;;;;;;;6213860;23;19908;-95
2023/05/11 18:57:24;;;;;;;;;;;;;;;;;;6188351;23;19944;-94
2023/05/11 18:59:52;;;;;;;;;;;;;;;;;;6189009;23;19944;-95
2023/05/11 19:02:19;;;;;;;;;;;;;;;;;;6188507;23;19944;-95
2023/05/11 19:04:49;;;;;;;;;;;;;;;;;;6212541;23;19948;-94
2023/05/11 19:07:18;;;;;;;;;;;;;;;;;;6188299;23;19952;-94
2023/05/11 19:09:46;;;;;;;;;;;;;;;;;;6213598;23;19948;-96
2023/05/11 19:12:18;;;;;;;;;;;;;;;;;;6213935;23;19948;-94
2023/05/11 19:14:46;;;;;;;;;;;;;;;;;;6189523;23;19952;-94
2023/05/11 19:17:15;;;;;;;;;;;;;;;;;;6215259;23;19948;-96
2023/05/11 19:19:48;;;;;;;;;;;;;;;;;;6215828;23;19944;-95
2023/05/11 19:22:16;;;;;;;;;;;;;;;;;;6191161;23;19940;-96
2023/05/11 19:24:43;;;;;;;;;;;;;;;;;;6190510;23;19936;-95
2023/05/11 19:27:14;;;;;;;;;;;;;;;;;;6190330;23;19944;-95
2023/05/11 19:29:41;;;;;;;;;;;;;;;;;;6190936;23;19940;-95
2023/05/11 19:32:14;;;;;;;;;;;;;;;;;;6190063;23;19955;-94
2023/05/11 19:34:43;;;;;;;;;;;;;;;;;;6215296;23;19952;-94
2023/05/11 19:37:18;;;;;;;;;;;;;;;;;;6189458;23;19944;-96
2023/05/11 19:39:48;;;;;;;;;;;;;;;;;;6190928;23;19948;-95
2023/05/11 19:42:15;;;;;;;;;;;;;;;;;;6190442;23;19948;-95
2023/05/11 19:44:43;;;;;;;;;;;;;;;;;;6190617;23;19944;-95
2023/05/11 19:47:13;;;;;;;;;;;;;;;;;;6189868;23;19940;-93
2023/05/11 19:49:47;;;;;;;;;;;;;;;;;;6190262;23;19944;-92
2023/05/11 19:52:16;;;;;;;;;;;;;;;;;;6224817;23;19940;-93
2023/05/11 19:54:45;;;;;;;;;;;;;;;;;;6213407;23;19944;-93
2023/05/11 19:57:12;;;;;;;;;;;;;;;;;;6188244;23;19908;-93
2023/05/11 19:59:43;;;;;;;;;;;;;;;;;;6224448;23;19941;-93
2023/05/11 20:02:13;;;;;;;;;;;;;;;;;;6187768;23;19904;-94
2023/05/11 20:04:44;;;;;;;;;;;;;;;;;;6188916;23;19948;-93
2023/05/11 20:07:14;;;;;;;;;;;;;;;;;;6216717;23;19939;-95
2023/05/11 20:09:45;;;;;;;;;;;;;;;;;;6214269;23;19948;-96
2023/05/11 20:12:12;;;;;;;;;;;;;;;;;;6223284;23;19936;-95
2023/05/11 20:14:41;;;;;;;;;;;;;;;;;;6188994;23;19960;-93
2023/05/11 20:17:09;;;;;;;;;;;;;;;;;;6213342;23;19934;-94
2023/05/11 20:19:37;;;;;;;;;;;;;;;;;;6188466;23;19948;-95
2023/05/11 20:22:04;;;;;;;;;;;;;;;;;;6188565;23;19948;-95
2023/05/11 20:24:35;;;;;;;;;;;;;;;;;;6188671;23;19944;-96
2023/05/11 20:27:08;;;;;;;;;;;;;;;;;;6187605;23;19944;-95
2023/05/11 20:29:39;;;;;;;;;;;;;;;;;;6224022;23;19968;-96
2023/05/11 20:32:10;;;;;;;;;;;;;;;;;;6212641;23;19947;-96
2023/05/11 20:34:45;;;;;;;;;;;;;;;;;;6188753;23;19952;-96
2023/05/11 20:37:16;;;;;;;;;;;;;;;;;;6187788;23;19971;-96
2023/05/11 20:39:53;;;;;;;;;;;;;;;;;;6188317;23;19952;-96
2023/05/11 20:42:29;;;;;;;;;;;;;;;;;;6189354;23;19952;-96
2023/05/11 20:45:04;;;;;;;;;;;;;;;;;;6224091;23;19944;-95
2023/05/11 20:47:35;;;;;;;;;;;;;;;;;;6188309;23;19953;-96
2023/05/11 20:50:03;;;;;;;;;;;;;;;;;;6188455;23;19944;-94
2023/05/11 20:52:31;;;;;;;;;;;;;;;;;;6188877;23;19943;-96
2023/05/11 20:55:03;;;;;;;;;;;;;;;;;;6188251;23;19953;-95
2023/05/11 20:57:41;;;;;;;;;;;;;;;;;;6223268;23;19915;-96
2023/05/11 21:00:10;;;;;;;;;;;;;;;;;;6188907;23;19952;-96
2023/05/11 21:02:37;;;;;;;;;;;;;;;;;;6188647;23;19940;-95
2023/05/11 21:05:10;;;;;;;;;;;;;;;;;;6188174;23;19956;-95
2023/05/11 21:07:38;;;;;;;;;;;;;;;;;;6188317;23;19948;-96
2023/05/11 21:10:06;;;;;;;;;;;;;;;;;;6188713;23;19948;-96
2023/05/11 21:12:37;;;;;;;;;;;;;;;;;;6188308;23;19940;-96
2023/05/11 21:15:07;;;;;;;;;;;;;;;;;;6188580;23;19940;-96
2023/05/11 21:17:36;;;;;;;;;;;;;;;;;;6188152;23;19908;-96
2023/05/11 21:20:05;;;;;;;;;;;;;;;;;;6188718;23;19944;-96
2023/05/11 21:22:33;;;;;;;;;;;;;;;;;;6188303;23;19947;-96
2023/05/11 21:25:02;;;;;;;;;;;;;;;;;;6188119;23;19952;-96
2023/05/11 21:27:30;;;;;;;;;;;;;;;;;;6187889;23;19959;-96
2023/05/11 21:30:01;;;;;;;;;;;;;;;;;;6187806;23;19943;-96
2023/05/11 21:32:36;;;;;;;;;;;;;;;;;;6189123;23;19945;-96
2023/05/11 21:35:07;;;;;;;;;;;;;;;;;;6213076;23;19952;-96
2023/05/11 21:37:35;;;;;;;;;;;;;;;;;;6187259;23;19905;-96
2023/05/11 21:40:03;;;;;;;;;;;;;;;;;;6188173;23;19948;-96
2023/05/11 21:42:34;;;;;;;;;;;;;;;;;;6188112;23;19950;-96
2023/05/11 21:45:04;;;;;;;;;;;;;;;;;;6187589;23;19964;-96
2023/05/11 21:47:32;;;;;;;;;;;;;;;;;;6187627;23;19956;-96
2023/05/11 21:50:01;;;;;;;;;;;;;;;;;;6188089;23;19976;-96
2023/05/11 21:52:29;;;;;;;;;;;;;;;;;;6188329;23;19961;-96
2023/05/11 21:54:57;;;;;;;;;;;;;;;;;;6212721;23;19944;-95
2023/05/11 21:57:25;;;;;;;;;;;;;;;;;;6187310;23;19904;-96
2023/05/11 21:59:55;;;;;;;;;;;;;;;;;;6187541;23;19940;-96
2023/05/11 22:02:35;;;;;;;;;;;;;;;;;;6188214;23;19963;-95
2023/05/11 22:05:05;;;;;;;;;;;;;;;;;;6188383;23;19993;-96
2023/05/11 22:07:45;;;;;;;;;;;;;;;;;;6211854;23;19975;-96
2023/05/11 22:10:15;;;;;;;;;;;;;;;;;;6188087;23;19964;-96
2023/05/11 22:12:46;;;;;;;;;;;;;;;;;;6187769;23;19964;-96
2023/05/11 22:15:14;;;;;;;;;;;;;;;;;;6187853;23;19948;-96
2023/05/11 22:17:43;;;;;;;;;;;;;;;;;;6211802;23;19918;-96
2023/05/11 22:20:20;;;;;;;;;;;;;;;;;;6189852;23;19959;-96
2023/05/11 22:22:50;;;;;;;;;;;;;;;;;;6187950;23;19960;-95
2023/05/11 22:25:20;;;;;;;;;;;;;;;;;;6187796;23;19944;-96
2023/05/11 22:27:50;;;;;;;;;;;;;;;;;;6188004;23;19956;-96
2023/05/11 22:30:18;;;;;;;;;;;;;;;;;;6212778;23;19944;-96
2023/05/11 22:32:47;;;;;;;;;;;;;;;;;;6187499;23;19940;-96
2023/05/11 22:35:16;;;;;;;;;;;;;;;;;;6187705;23;19944;-96
2023/05/11 22:37:46;;;;;;;;;;;;;;;;;;6212339;23;19904;-96
2023/05/11 22:40:14;;;;;;;;;;;;;;;;;;6186915;23;19944;-96
2023/05/11 22:42:41;;;;;;;;;;;;;;;;;;6187551;23;19946;-96
2023/05/11 22:45:15;;;;;;;;;;;;;;;;;;6188410;23;19934;-96
2023/05/11 22:47:45;;;;;;;;;;;;;;;;;;6186916;23;19940;-96
2023/05/11 22:50:24;;;;;;;;;;;;;;;;;;6187079;23;19944;-96
2023/05/11 22:52:57;;;;;;;;;;;;;;;;;;6187003;23;19944;-96
2023/05/11 22:55:30;;;;;;;;;;;;;;;;;;6188019;23;19948;-96
2023/05/11 22:58:00;;;;;;;;;;;;;;;;;;6187096;23;19928;-96
2023/05/11 23:00:31;;;;;;;;;;;;;;;;;;6187936;23;19947;-96
2023/05/11 23:02:58;;;;;;;;;;;;;;;;;;6187646;23;19963;-96
2023/05/11 23:05:38;;;;;;;;;;;;;;;;;;;;;